Saint Kitts, Saint Kitts and Nevis

12:11 PM AST on August 04, 2015 (GMT -0400)
Robert L Bradshaw International | | Change Station
CLOSE
Current Station
Airport
Location: St. Kitts,
Elevation: 157 ft
Nearby Weather Stations

Elev 157 ft 17.30 °N, 62.68 °W | Updated 11 minutes ago

Partly Cloudy
Partly Cloudy
88 °F
Feels Like 96 °F
N
17
Wind Variable Wind from ENE

Today
High -- | Low -- °F
--% Chance of Precip.
Yesterday
High -- | Low -- °F
Precip. -- in
5:50 AM 6:42 PM
Waning Gibbous, 76% visible
Pressure 30.06 in
Visibility 6.2 miles
Clouds Few 2300 ft
Heat Index 96 °F
Dew Point 73 °F
Humidity 62%
Rainfall 0.00 in
Snow Depth Not available.
UV 17 out of 12
Pollen Not available.
Air Quality Not available.
Flu Activity Not available.
METAR TKPK 041600Z 06015KT 9999 FEW023 31/23 Q1018

More Conditions Fewer Conditions

Pressure 30.06 in
Visibility 6.2 miles
Clouds Few 2300 ft
Heat Index 96 °F
Dew Point 73 °F
Humidity 62%
Rainfall 0.00 in
Snow Depth Not available.
UV 17 out of 12
Pollen Not available.
Air Quality Not available.
Flu Activity Not available.
METAR TKPK 041600Z 06015KT 9999 FEW023 31/23 Q1018

More Conditions Fewer Conditions

10-Day Weather Forecast

×

Almanac

Astronomy

Aug. 04, 2015 Rise Set
Actual Time
Civil Twilight
Nautical Twilight
Astronomical Twilight
Moon
Length of Visible Light
Length of Day
Tomorrow will be .
, % of the Moon is Illuminated

Today's Extremes

Country Highs Country Lows

Community

WunderPhotos

Upload Photos

1,843,913 photos uploaded!

WunderBlogs® & News

Nearby

Air Quality

  Air Quality AQ Index Pollutant
Not available.

Snow Depth

Station Depth Elevation

Earthquake Activity

City Distance Mag. Time & Date
Minimum magnitude displayed is 2.5.

Coastal Water Temperatures

Place Temperature

Stations

Nearby Weather Stations

Station Location Temp. Windchill Dew Point Humidity Wind Precip. Elev Updated Type